createdAt,value
2018-06-07T00:01:15.154Z,14.44
2018-06-07T00:03:44.990Z,14.41
2018-06-07T00:06:14.827Z,14.38
2018-06-07T00:08:44.914Z,14.33
2018-06-07T00:11:14.793Z,14.29
2018-06-07T00:13:44.927Z,14.24
2018-06-07T00:16:14.841Z,14.19
2018-06-07T00:18:44.966Z,14.16
2018-06-07T00:21:14.838Z,14.10
2018-06-07T00:23:44.847Z,14.06
2018-06-07T00:26:14.811Z,14.06
2018-06-07T00:28:44.937Z,14.00
2018-06-07T00:31:14.819Z,13.97
2018-06-07T00:33:44.925Z,13.93
2018-06-07T00:36:14.919Z,13.91
2018-06-07T00:38:44.877Z,13.87
2018-06-07T00:41:15.049Z,13.83
2018-06-07T00:43:44.925Z,13.80
2018-06-07T00:46:14.824Z,13.75
2018-06-07T00:48:44.798Z,13.71
2018-06-07T00:51:14.849Z,13.68
2018-06-07T00:53:44.889Z,13.65
2018-06-07T00:56:24.378Z,13.63
2018-06-07T00:58:54.220Z,13.59
2018-06-07T01:01:24.029Z,13.57
2018-06-07T01:03:53.845Z,13.52
2018-06-07T01:06:23.891Z,13.47
2018-06-07T01:08:53.929Z,13.44
2018-06-07T01:11:23.890Z,13.38
2018-06-07T01:13:53.926Z,13.32
2018-06-07T01:16:23.829Z,13.30
2018-06-07T01:18:53.946Z,13.30
2018-06-07T01:21:23.951Z,13.29
2018-06-07T01:23:54.014Z,13.30
2018-06-07T01:26:23.899Z,13.27
2018-06-07T01:28:53.890Z,13.24
2018-06-07T01:31:28.603Z,13.22
2018-06-07T01:33:58.737Z,13.19
2018-06-07T01:36:28.854Z,13.16
2018-06-07T01:39:08.375Z,13.14
2018-06-07T01:41:38.677Z,13.12
2018-06-07T01:44:08.837Z,13.10
2018-06-07T01:46:38.946Z,13.06
2018-06-07T01:49:09.331Z,12.99
2018-06-07T01:51:39.096Z,12.97
2018-06-07T01:54:08.927Z,12.94
2018-06-07T01:56:38.958Z,12.94
2018-06-07T01:59:08.871Z,12.90
2018-06-07T02:01:38.949Z,12.87
2018-06-07T02:04:08.858Z,12.77
2018-06-07T02:06:38.906Z,12.69
2018-06-07T02:09:09.998Z,12.63
2018-06-07T02:11:39.871Z,12.67
2018-06-07T02:14:09.822Z,12.61
2018-06-07T02:16:39.924Z,12.58
2018-06-07T02:19:09.994Z,12.53
2018-06-07T02:21:39.851Z,12.49
2018-06-07T02:24:09.858Z,12.37
2018-06-07T02:26:39.841Z,12.31
2018-06-07T02:29:09.909Z,12.38
2018-06-07T02:31:39.790Z,12.38
2018-06-07T02:34:09.830Z,12.32
2018-06-07T02:36:40.014Z,12.29
2018-06-07T02:39:09.855Z,12.34
2018-06-07T02:41:40.003Z,12.37
2018-06-07T02:44:09.785Z,12.32
2018-06-07T02:46:40.267Z,12.36
2018-06-07T02:49:10.129Z,12.37
2018-06-07T02:51:40.207Z,12.37
2018-06-07T02:54:10.650Z,12.38
2018-06-07T02:56:40.797Z,12.37
2018-06-07T02:59:10.866Z,12.36
2018-06-07T03:01:40.722Z,12.36
2018-06-07T03:04:11.174Z,12.33
2018-06-07T03:06:41.102Z,12.32
2018-06-07T03:09:10.985Z,12.31
2018-06-07T03:11:40.821Z,12.31
2018-06-07T03:14:10.978Z,12.29
2018-06-07T03:16:41.218Z,12.29
2018-06-07T03:19:11.070Z,12.31
2018-06-07T03:21:40.890Z,12.30
2018-06-07T03:24:11.141Z,12.28
2018-06-07T03:26:40.943Z,12.27
2018-06-07T03:29:10.762Z,12.24
2018-06-07T03:31:40.591Z,12.22
2018-06-07T03:34:10.985Z,12.16
2018-06-07T03:36:41.273Z,12.12
2018-06-07T03:39:11.489Z,12.13
2018-06-07T03:41:41.300Z,12.14
2018-06-07T03:44:11.458Z,12.18
2018-06-07T03:46:42.357Z,12.17
2018-06-07T03:49:13.643Z,12.08
2018-06-07T03:51:44.301Z,12.06
2018-06-07T03:54:15.617Z,12.05
2018-06-07T03:56:46.287Z,12.08
2018-06-07T03:59:17.578Z,12.11
2018-06-07T04:01:47.457Z,12.12
2018-06-07T04:04:18.291Z,12.16
2018-06-07T04:06:49.691Z,12.27
2018-06-07T04:09:20.538Z,12.30
2018-06-07T04:11:51.399Z,12.33
2018-06-07T04:14:22.253Z,12.33
2018-06-07T04:16:53.661Z,12.38
2018-06-07T04:19:24.343Z,12.31
2018-06-07T04:21:55.634Z,12.32
2018-06-07T04:24:25.452Z,12.41
2018-06-07T04:26:56.322Z,12.45
2018-06-07T04:29:27.598Z,12.49
2018-06-07T04:31:58.110Z,12.53
2018-06-07T04:34:28.538Z,12.58
2018-06-07T04:36:59.373Z,12.65
2018-06-07T04:39:30.637Z,12.72
2018-06-07T04:42:04.361Z,12.67
2018-06-07T04:44:34.444Z,12.84
2018-06-07T04:47:04.266Z,12.93
2018-06-07T04:49:34.722Z,12.96
2018-06-07T04:52:05.297Z,13.06
2018-06-07T04:54:36.637Z,13.11
2018-06-07T04:57:06.635Z,13.21
2018-06-07T04:59:37.302Z,13.32
2018-06-07T05:02:08.611Z,13.37
2018-06-07T05:04:39.544Z,13.42
2018-06-07T05:07:10.387Z,13.60
2018-06-07T05:09:41.227Z,13.64
2018-06-07T05:12:12.610Z,13.70
2018-06-07T05:14:43.308Z,13.76
2018-06-07T05:17:14.624Z,13.88
2018-06-07T05:19:56.933Z,13.93
2018-06-07T05:22:26.827Z,14.08
2018-06-07T05:24:57.101Z,14.18
2018-06-07T05:27:27.144Z,14.33
2018-06-07T05:29:57.035Z,14.51
2018-06-07T05:32:26.901Z,14.49
2018-06-07T05:34:56.806Z,14.56
2018-06-07T05:37:26.580Z,14.65
2018-06-07T05:39:56.485Z,14.74
2018-06-07T05:42:26.553Z,14.77
2018-06-07T05:44:56.342Z,14.89
2018-06-07T05:47:26.141Z,15.04
2018-06-07T05:49:55.948Z,15.09
2018-06-07T05:52:26.481Z,15.18
2018-06-07T05:54:57.266Z,15.26
2018-06-07T05:57:28.650Z,15.36
2018-06-07T05:59:59.313Z,15.42
2018-06-07T06:02:30.633Z,15.46
2018-06-07T06:05:01.206Z,15.64
2018-06-07T06:07:32.609Z,15.81
2018-06-07T06:10:03.298Z,15.94
2018-06-07T06:12:34.578Z,15.99
2018-06-07T06:15:05.492Z,16.08
2018-06-07T06:17:36.309Z,16.25
2018-06-07T06:20:09.568Z,16.28
2018-06-07T06:22:39.741Z,16.39
2018-06-07T06:25:09.497Z,16.54
2018-06-07T06:27:40.388Z,16.61
2018-06-07T06:30:11.784Z,16.70
2018-06-07T06:32:42.313Z,16.70
2018-06-07T06:35:13.541Z,16.77
2018-06-07T06:38:53.283Z,16.87
2018-06-07T06:41:23.016Z,16.97
2018-06-07T06:43:52.845Z,17.09
2018-06-07T06:46:22.846Z,17.22
2018-06-07T06:48:52.745Z,17.39
2018-06-07T06:51:22.802Z,17.30
2018-06-07T06:53:52.795Z,17.46
2018-06-07T06:56:22.905Z,17.42
2018-06-07T06:58:52.778Z,17.55
2018-06-07T07:01:22.793Z,17.64
2018-06-07T07:03:52.753Z,17.72
2018-06-07T07:06:22.867Z,17.72
2018-06-07T07:08:52.860Z,17.74
2018-06-07T07:11:22.939Z,17.88
2018-06-07T07:13:52.854Z,17.93
2018-06-07T07:16:22.822Z,18.04
2018-06-07T07:18:52.885Z,18.17
2018-06-07T07:21:22.805Z,18.27
2018-06-07T07:23:52.820Z,18.34
2018-06-07T07:26:22.901Z,18.42
2018-06-07T07:28:52.770Z,18.54
2018-06-07T07:31:22.925Z,18.65
2018-06-07T07:33:53.049Z,18.72
2018-06-07T07:36:22.858Z,18.82
2018-06-07T07:38:52.824Z,18.90
2018-06-07T07:41:22.814Z,18.99
2018-06-07T07:43:52.824Z,19.05
2018-06-07T07:46:22.801Z,19.17
2018-06-07T07:48:52.801Z,19.31
2018-06-07T07:51:22.801Z,19.46
2018-06-07T07:53:52.845Z,19.51
2018-06-07T07:56:22.904Z,19.60
2018-06-07T07:58:52.782Z,19.71
2018-06-07T08:01:22.873Z,19.80
2018-06-07T08:03:52.766Z,19.94
2018-06-07T08:06:24.266Z,20.05
2018-06-07T08:08:53.997Z,20.29
2018-06-07T08:11:23.769Z,20.52
2018-06-07T08:13:53.769Z,20.87
2018-06-07T08:16:24.090Z,20.93
2018-06-07T08:18:53.869Z,21.04
2018-06-07T08:21:24.064Z,21.17
2018-06-07T08:23:53.846Z,21.31
2018-06-07T08:26:23.798Z,21.24
2018-06-07T08:28:53.769Z,21.25
2018-06-07T08:31:23.825Z,21.42
2018-06-07T08:33:53.778Z,21.51
2018-06-07T08:36:23.774Z,21.79
2018-06-07T08:38:53.905Z,21.98
2018-06-07T08:41:23.713Z,22.14
2018-06-07T08:43:53.780Z,22.12
2018-06-07T08:46:23.819Z,22.14
2018-06-07T08:48:53.797Z,22.20
2018-06-07T08:51:23.876Z,22.36
2018-06-07T08:53:53.920Z,22.32
2018-06-07T08:56:23.721Z,22.41
2018-06-07T08:58:53.806Z,22.52
2018-06-07T09:01:23.746Z,22.64
2018-06-07T09:03:53.809Z,22.66
2018-06-07T09:06:23.817Z,22.67
2018-06-07T09:08:53.837Z,22.78
2018-06-07T09:11:24.013Z,23.01
2018-06-07T09:13:53.857Z,23.34
2018-06-07T09:16:24.100Z,23.36
2018-06-07T09:18:53.922Z,23.30
2018-06-07T09:21:23.737Z,23.47
2018-06-07T09:23:54.019Z,23.69
2018-06-07T09:26:23.856Z,23.89
2018-06-07T09:28:53.750Z,23.76
2018-06-07T09:31:23.474Z,23.76
2018-06-07T09:33:53.217Z,23.83
2018-06-07T09:36:23.437Z,23.89
2018-06-07T09:38:53.214Z,24.02
2018-06-07T09:41:22.986Z,24.06
2018-06-07T09:43:52.710Z,24.05
2018-06-07T09:46:23.292Z,24.13
2018-06-07T09:48:54.785Z,24.33
2018-06-07T09:51:25.291Z,24.43
2018-06-07T09:53:56.485Z,24.51
2018-06-07T09:56:27.294Z,24.56
2018-06-07T09:58:58.778Z,24.71
2018-06-07T10:01:29.273Z,24.74
2018-06-07T10:04:00.461Z,24.79
2018-06-07T10:06:31.276Z,24.81
2018-06-07T10:09:02.545Z,25.02
2018-06-07T10:11:33.253Z,25.20
2018-06-07T10:14:04.585Z,25.44
2018-06-07T10:16:35.250Z,25.55
2018-06-07T10:19:06.561Z,25.61
2018-06-07T10:21:36.321Z,25.64
2018-06-07T10:24:07.406Z,25.83
2018-06-07T10:26:38.332Z,26.06
2018-06-07T10:29:09.175Z,26.14
2018-06-07T10:31:40.549Z,26.20
2018-06-07T10:34:11.284Z,26.32
2018-06-07T10:36:42.561Z,26.21
2018-06-07T10:39:13.289Z,26.10
2018-06-07T10:41:44.517Z,26.26
2018-06-07T10:44:15.255Z,26.54
2018-06-07T10:46:46.535Z,26.83
2018-06-07T10:49:17.246Z,27.02
2018-06-07T10:51:48.505Z,26.88
2018-06-07T10:54:19.213Z,26.78
2018-06-07T10:56:50.636Z,26.88
2018-06-07T10:59:21.237Z,26.81
2018-06-07T11:01:51.621Z,27.02
2018-06-07T11:04:22.292Z,27.02
2018-06-07T11:06:53.578Z,27.07
2018-06-07T11:09:24.289Z,27.07
2018-06-07T11:11:55.570Z,27.27
2018-06-07T11:14:26.308Z,27.34
2018-06-07T11:16:57.583Z,27.70
2018-06-07T11:19:28.301Z,27.74
2018-06-07T11:21:58.826Z,27.35
2018-06-07T11:24:29.621Z,27.59
2018-06-07T11:27:00.335Z,27.91
2018-06-07T11:29:31.218Z,28.08
2018-06-07T11:32:01.883Z,28.05
2018-06-07T11:34:32.341Z,27.80
2018-06-07T11:37:03.275Z,28.05
2018-06-07T11:39:34.554Z,28.10
2018-06-07T11:42:05.365Z,28.01
2018-06-07T11:44:36.277Z,28.21
2018-06-07T11:47:06.685Z,28.36
2018-06-07T11:49:37.278Z,28.51
2018-06-07T11:52:08.629Z,28.85
2018-06-07T11:54:39.186Z,29.06
2018-06-07T11:57:10.694Z,28.92
2018-06-07T11:59:41.301Z,28.95
2018-06-07T12:02:12.600Z,28.73
2018-06-07T12:04:43.364Z,28.85
2018-06-07T12:07:14.269Z,29.00
2018-06-07T12:09:44.609Z,29.19
2018-06-07T12:12:15.365Z,29.32
2018-06-07T12:14:46.213Z,29.12
2018-06-07T12:17:17.670Z,28.87
2018-06-07T12:19:48.302Z,28.97
2018-06-07T12:22:19.753Z,29.15
2018-06-07T12:24:50.201Z,29.24
2018-06-07T12:27:21.646Z,29.22
2018-06-07T12:29:52.327Z,29.07
2018-06-07T12:32:23.286Z,29.21
2018-06-07T12:34:54.204Z,29.42
2018-06-07T12:37:25.545Z,29.19
2018-06-07T12:39:56.516Z,28.99
2018-06-07T12:42:27.262Z,29.02
2018-06-07T12:44:58.627Z,29.40
2018-06-07T12:47:29.329Z,29.52
2018-06-07T12:50:00.826Z,29.20
2018-06-07T12:52:31.343Z,29.57
2018-06-07T12:55:01.825Z,29.62
2018-06-07T12:57:32.447Z,29.70
2018-06-07T13:00:03.325Z,29.74
2018-06-07T13:02:34.295Z,29.58
2018-06-07T13:05:05.706Z,29.74
2018-06-07T13:07:36.305Z,29.93
2018-06-07T13:10:07.558Z,30.04
2018-06-07T13:12:38.242Z,29.90
2018-06-07T13:15:09.538Z,30.03
2018-06-07T13:17:40.353Z,29.90
2018-06-07T13:20:11.269Z,29.98
2018-06-07T13:22:42.590Z,30.23
2018-06-07T13:25:13.213Z,30.15
2018-06-07T13:27:44.616Z,30.02
2018-06-07T13:30:15.205Z,29.88
2018-06-07T13:32:46.620Z,30.01
2018-06-07T13:35:17.341Z,30.26
2018-06-07T13:37:48.273Z,30.43
2018-06-07T13:40:18.612Z,29.95
2018-06-07T13:42:49.328Z,30.11
2018-06-07T13:45:20.890Z,30.27
2018-06-07T13:47:51.366Z,30.41
2018-06-07T13:50:21.193Z,30.32
2018-06-07T13:52:52.651Z,30.44
2018-06-07T13:55:22.433Z,30.05
2018-06-07T13:57:53.372Z,30.26
2018-06-07T14:00:24.324Z,30.54
2018-06-07T14:02:55.667Z,30.36
2018-06-07T14:05:26.287Z,30.48
2018-06-07T14:07:57.689Z,30.65
2018-06-07T14:10:28.267Z,30.63
2018-06-07T14:12:59.649Z,30.89
2018-06-07T14:15:29.442Z,30.46
2018-06-07T14:18:00.341Z,30.28
2018-06-07T14:20:31.581Z,30.49
2018-06-07T14:23:02.291Z,30.41
2018-06-07T14:25:33.560Z,30.67
2018-06-07T14:28:04.431Z,30.52
2018-06-07T14:30:35.317Z,30.90
2018-06-07T14:33:06.286Z,31.33
2018-06-07T14:35:37.636Z,31.06
2018-06-07T14:38:08.353Z,31.31
2018-06-07T14:40:39.221Z,31.59
2018-06-07T14:43:10.629Z,31.29
2018-06-07T14:45:41.189Z,31.15
2018-06-07T14:48:11.649Z,30.91
2018-06-07T14:50:43.254Z,30.55
2018-06-07T14:53:13.680Z,30.53
2018-06-07T14:55:44.258Z,30.71
2018-06-07T14:58:15.607Z,30.47
2018-06-07T15:00:46.270Z,30.24
2018-06-07T15:03:17.547Z,30.19
2018-06-07T15:05:48.396Z,30.03
2018-06-07T15:08:19.322Z,29.78
2018-06-07T15:10:50.519Z,29.93
2018-06-07T15:13:21.359Z,30.11
2018-06-07T15:15:52.268Z,30.47
2018-06-07T15:18:23.588Z,30.74
2018-06-07T15:20:54.193Z,30.54
2018-06-07T15:23:25.654Z,30.28
2018-06-07T15:25:55.733Z,30.26
2018-06-07T15:28:26.277Z,30.25
2018-06-07T15:30:57.561Z,30.15
2018-06-07T15:33:28.263Z,30.21
2018-06-07T15:35:59.233Z,30.21
2018-06-07T15:38:30.685Z,30.33
2018-06-07T15:41:00.438Z,29.98
2018-06-07T15:43:31.279Z,29.91
2018-06-07T15:46:02.213Z,29.80
2018-06-07T15:48:33.509Z,29.74
2018-06-07T15:51:04.286Z,29.96
2018-06-07T15:53:35.548Z,29.95
2018-06-07T15:56:06.329Z,29.92
2018-06-07T15:58:37.691Z,29.75
2018-06-07T16:01:08.296Z,29.91
2018-06-07T16:03:39.613Z,30.05
2018-06-07T16:06:10.323Z,29.45
2018-06-07T16:08:41.739Z,29.70
2018-06-07T16:11:12.245Z,29.86
2018-06-07T16:13:43.890Z,29.99
2018-06-07T16:16:14.285Z,29.99
2018-06-07T16:18:45.665Z,29.98
2018-06-07T16:21:15.422Z,29.64
2018-06-07T16:23:46.300Z,29.56
2018-06-07T16:26:17.612Z,29.52
2018-06-07T16:28:48.700Z,29.62
2018-06-07T16:31:20.381Z,29.20
2018-06-07T16:33:50.354Z,29.08
2018-06-07T16:36:21.264Z,29.05
2018-06-07T16:38:52.657Z,29.11
2018-06-07T16:41:23.268Z,29.22
2018-06-07T16:43:54.606Z,29.20
2018-06-07T16:46:25.237Z,28.73
2018-06-07T16:48:56.593Z,28.75
2018-06-07T16:51:27.316Z,28.62
2018-06-07T16:53:58.307Z,28.79
2018-06-07T16:56:29.608Z,28.40
2018-06-07T16:59:00.309Z,28.37
2018-06-07T17:01:31.625Z,28.39
2018-06-07T17:04:02.317Z,28.15
2018-06-07T17:06:33.716Z,27.93
2018-06-07T17:09:04.508Z,27.86
2018-06-07T17:11:35.289Z,28.04
2018-06-07T17:14:06.950Z,27.94
2018-06-07T17:16:37.419Z,27.74
2018-06-07T17:19:08.299Z,27.73
2018-06-07T17:21:39.511Z,27.92
2018-06-07T17:24:10.313Z,27.56
2018-06-07T17:26:41.490Z,27.73
2018-06-07T17:29:11.288Z,27.60
2018-06-07T17:31:42.678Z,27.75
2018-06-07T17:34:13.685Z,27.84
2018-06-07T17:36:44.327Z,27.59
2018-06-07T17:39:15.585Z,27.38
2018-06-07T17:41:46.301Z,27.47
2018-06-07T17:44:17.653Z,27.38
2018-06-07T17:46:48.241Z,27.41
2018-06-07T17:49:19.969Z,27.17
2018-06-07T17:51:50.418Z,27.01
2018-06-07T17:54:21.309Z,26.97
2018-06-07T17:56:52.509Z,26.78
2018-06-07T17:59:23.391Z,26.54
2018-06-07T18:01:54.310Z,26.50
2018-06-07T18:04:25.554Z,26.61
2018-06-07T18:06:56.333Z,26.56
2018-06-07T18:09:27.581Z,26.51
2018-06-07T18:11:58.605Z,26.41
2018-06-07T18:14:29.281Z,26.38
2018-06-07T18:16:59.585Z,26.36
2018-06-07T18:19:30.453Z,26.50
2018-06-07T18:22:01.498Z,26.57
2018-06-07T18:24:32.371Z,26.61
2018-06-07T18:27:03.206Z,26.60
2018-06-07T18:29:34.637Z,26.64
2018-06-07T18:32:05.232Z,26.61
2018-06-07T18:34:35.645Z,26.60
2018-06-07T18:37:06.295Z,26.57
2018-06-07T18:39:37.789Z,26.41
2018-06-07T18:42:08.786Z,26.33
2018-06-07T18:44:41.290Z,26.12
2018-06-07T18:47:11.257Z,26.18
2018-06-07T18:49:42.349Z,26.16
2018-06-07T18:52:12.558Z,26.10
2018-06-07T18:54:43.385Z,26.03
2018-06-07T18:57:14.245Z,26.06
2018-06-07T18:59:45.638Z,26.05
2018-06-07T19:02:16.365Z,26.06
2018-06-07T19:04:47.876Z,25.98
2018-06-07T19:07:23.621Z,25.95
2018-06-07T19:09:58.554Z,25.87
2018-06-07T19:12:29.236Z,25.85
2018-06-07T19:15:04.685Z,25.80
2018-06-07T19:17:34.610Z,25.76
2018-06-07T19:20:11.242Z,25.71
2018-06-07T19:22:41.349Z,25.66
2018-06-07T19:25:16.681Z,25.58
2018-06-07T19:27:46.878Z,25.50
2018-06-07T19:30:16.942Z,25.41
2018-06-07T19:32:52.221Z,25.35
2018-06-07T19:35:22.154Z,25.22
2018-06-07T19:37:51.929Z,25.15
2018-06-07T19:40:26.824Z,25.12
2018-06-07T19:42:57.257Z,25.05
2018-06-07T19:45:27.059Z,24.99
2018-06-07T19:47:56.876Z,24.92
2018-06-07T19:50:27.113Z,24.81
2018-06-07T19:52:57.865Z,24.77
2018-06-07T19:55:27.921Z,24.70
2018-06-07T19:57:57.825Z,24.60
2018-06-07T20:00:27.919Z,24.52
2018-06-07T20:02:58.179Z,24.44
2018-06-07T20:05:28.103Z,24.36
2018-06-07T20:07:58.443Z,24.29
2018-06-07T20:10:28.749Z,24.23
2018-06-07T20:12:58.908Z,24.11
2018-06-07T20:15:28.924Z,24.00
2018-06-07T20:17:58.851Z,24.00
2018-06-07T20:20:29.152Z,23.96
2018-06-07T20:22:59.104Z,23.93
2018-06-07T20:25:29.009Z,23.87
2018-06-07T20:27:59.069Z,23.58
2018-06-07T20:30:29.309Z,23.74
2018-06-07T20:32:59.154Z,23.68
2018-06-07T20:35:29.047Z,23.56
2018-06-07T20:37:58.924Z,23.45
2018-06-07T20:40:28.920Z,23.36
2018-06-07T20:42:58.789Z,23.28
2018-06-07T20:45:28.613Z,23.26
2018-06-07T20:47:58.345Z,23.19
2018-06-07T20:50:28.680Z,23.06
2018-06-07T20:52:59.453Z,23.01
2018-06-07T20:55:32.042Z,22.98
2018-06-07T20:58:01.774Z,22.93
2018-06-07T21:00:32.398Z,22.88
2018-06-07T21:03:04.239Z,22.84
2018-06-07T21:05:34.037Z,22.79
2018-06-07T21:08:04.483Z,22.73
2018-06-07T21:10:35.805Z,22.67
2018-06-07T21:13:06.334Z,22.61
2018-06-07T21:15:37.642Z,22.55
2018-06-07T21:18:08.448Z,22.49
2018-06-07T21:20:39.862Z,22.39
2018-06-07T21:23:11.799Z,22.32
2018-06-07T21:25:45.120Z,22.24
2018-06-07T21:28:14.912Z,22.16
2018-06-07T21:30:45.280Z,22.05
2018-06-07T21:33:14.998Z,21.95
2018-06-07T21:35:45.510Z,21.88
2018-06-07T21:38:16.387Z,21.78
2018-06-07T21:40:47.660Z,21.69
2018-06-07T21:43:18.250Z,21.59
2018-06-07T21:45:48.645Z,21.52
2018-06-07T21:48:19.313Z,21.44
2018-06-07T21:50:50.598Z,21.38
2018-06-07T21:53:21.318Z,21.32
2018-06-07T21:55:52.566Z,21.26
2018-06-07T21:58:23.293Z,21.19
2018-06-07T22:00:54.621Z,21.13
2018-06-07T22:03:25.278Z,21.06
2018-06-07T22:05:56.949Z,21.01
2018-06-07T22:08:27.398Z,20.95
2018-06-07T22:10:58.633Z,20.89
2018-06-07T22:13:29.669Z,20.82
2018-06-07T22:16:00.330Z,20.78
2018-06-07T22:18:31.495Z,20.74
2018-06-07T22:21:02.310Z,20.70
2018-06-07T22:23:33.645Z,20.66
2018-06-07T22:26:04.322Z,20.61
2018-06-07T22:28:35.593Z,20.53
2018-06-07T22:31:06.302Z,20.49
2018-06-07T22:33:37.557Z,20.43
2018-06-07T22:36:08.449Z,20.38
2018-06-07T22:38:39.275Z,20.33
2018-06-07T22:41:10.543Z,20.29
2018-06-07T22:43:41.294Z,20.26
2018-06-07T22:46:12.710Z,20.22
2018-06-07T22:48:43.257Z,20.18
2018-06-07T22:51:14.645Z,20.13
2018-06-07T22:53:44.373Z,20.05
2018-06-07T22:56:15.682Z,19.99
2018-06-07T22:58:46.289Z,19.97
2018-06-07T23:01:17.554Z,19.93
2018-06-07T23:03:47.299Z,19.89
2018-06-07T23:06:18.669Z,19.86
2018-06-07T23:08:49.253Z,19.81
2018-06-07T23:11:20.761Z,19.77
2018-06-07T23:13:51.294Z,19.73
2018-06-07T23:16:22.645Z,19.69
2018-06-07T23:18:53.345Z,19.65
2018-06-07T23:21:24.545Z,19.58
2018-06-07T23:23:55.540Z,19.49
2018-06-07T23:26:26.339Z,19.43
2018-06-07T23:28:57.599Z,19.37
2018-06-07T23:31:28.049Z,19.33
2018-06-07T23:33:58.438Z,19.27
2018-06-07T23:36:29.353Z,19.22
2018-06-07T23:39:00.537Z,19.17
2018-06-07T23:41:31.358Z,19.14
2018-06-07T23:44:02.528Z,19.11
2018-06-07T23:46:33.336Z,19.09
2018-06-07T23:49:04.521Z,19.05
2018-06-07T23:51:35.332Z,19.03
2018-06-07T23:54:06.854Z,18.96
2018-06-07T23:56:37.377Z,18.92
2018-06-07T23:59:07.596Z,18.88
